Map

Track Data

SID SEASON NUMBER BASIN SUBBASIN NAME ISO_TIME NATURE LAT LON WMO_WIND WMO_PRES WMO_AGENCY TRACK_TYPE DIST2LAND LANDFALL IFLAG USA_AGENCY USA_ATCF_ID USA_LAT USA_LON USA_RECORD USA_STATUS USA_WIND USA_PRES USA_SSHS USA_R34_NE USA_R34_SE USA_R34_SW USA_R34_NW USA_R50_NE USA_R50_SE USA_R50_SW USA_R50_NW USA_R64_NE USA_R64_SE USA_R64_SW USA_R64_NW USA_POCI USA_ROCI USA_RMW USA_EYE TOKYO_LAT TOKYO_LON TOKYO_GRADE TOKYO_WIND TOKYO_PRES TOKYO_R50_DIR TOKYO_R50_LONG TOKYO_R50_SHORT TOKYO_R30_DIR TOKYO_R30_LONG TOKYO_R30_SHORT TOKYO_LAND CMA_LAT CMA_LON CMA_CAT CMA_WIND CMA_PRES HKO_LAT HKO_LON HKO_CAT HKO_WIND HKO_PRES NEWDELHI_LAT NEWDELHI_LON NEWDELHI_GRADE NEWDELHI_WIND NEWDELHI_PRES NEWDELHI_CI NEWDELHI_DP NEWDELHI_POCI REUNION_LAT REUNION_LON REUNION_TYPE REUNION_WIND REUNION_PRES REUNION_TNUM REUNION_CI REUNION_RMW REUNION_R34_NE REUNION_R34_SE REUNION_R34_SW REUNION_R34_NW REUNION_R50_NE REUNION_R50_SE REUNION_R50_SW REUNION_R50_NW REUNION_R64_NE REUNION_R64_SE REUNION_R64_SW REUNION_R64_NW BOM_LAT BOM_LON BOM_TYPE BOM_WIND BOM_PRES BOM_TNUM BOM_CI BOM_RMW BOM_R34_NE BOM_R34_SE BOM_R34_SW BOM_R34_NW BOM_R50_NE BOM_R50_SE BOM_R50_SW BOM_R50_NW BOM_R64_NE BOM_R64_SE BOM_R64_SW BOM_R64_NW BOM_ROCI BOM_POCI BOM_EYE BOM_POS_METHOD BOM_PRES_METHOD NADI_LAT NADI_LON NADI_CAT NADI_WIND NADI_PRES WELLINGTON_LAT WELLINGTON_LON WELLINGTON_WIND WELLINGTON_PRES DS824_LAT DS824_LON DS824_STAGE DS824_WIND DS824_PRES TD9636_LAT TD9636_LON TD9636_STAGE TD9636_WIND TD9636_PRES TD9635_LAT TD9635_LON TD9635_WIND TD9635_PRES TD9635_ROCI NEUMANN_LAT NEUMANN_LON NEUMANN_CLASS NEUMANN_WIND NEUMANN_PRES MLC_LAT MLC_LON MLC_CLASS MLC_WIND MLC_PRES USA_GUST BOM_GUST BOM_GUST_PER REUNION_GUST REUNION_GUST_PER USA_SEAHGT USA_SEARAD_NE USA_SEARAD_SE USA_SEARAD_SW USA_SEARAD_NW STORM_SPEED STORM_DIR
1915244N15281 1915 30 NA CS NOT_NAMED 1915-08-31 12:00:00 TS 15.0000 -79.5000 30 hurdat_atl main 376 332 O_____________ hurdat_atl AL041915 15.0000 -79.5000 TD 30 -1 11 333
1915244N15281 1915 30 NA CS NOT_NAMED 1915-08-31 15:00:00 TS 15.5001 -79.7597 main 336 299 P_____________ AL041915 15.5001 -79.7597 TD 32 -1 11 334
1915244N15281 1915 30 NA CS NOT_NAMED 1915-08-31 18:00:00 TS 16.0000 -80.0000 35 hurdat_atl main 299 269 O_____________ hurdat_atl AL041915 16.0000 -80.0000 TS 35 0 11 337
1915244N15281 1915 30 NA CS NOT_NAMED 1915-08-31 21:00:00 TS 16.5000 -80.2077 main 269 248 P_____________ AL041915 16.5000 -80.2077 TS 37 0 11 339
1915244N15281 1915 30 NA CS NOT_NAMED 1915-09-01 00:00:00 TS 17.0000 -80.4000 40 hurdat_atl main 250 244 O_____________ hurdat_atl AL041915 17.0000 -80.4000 TS 40 0 11 339
1915244N15281 1915 30 NA CS NOT_NAMED 1915-09-01 03:00:00 TS 17.5000 -80.6150 main 245 242 P_____________ AL041915 17.5000 -80.6150 TS 42 0 11 339
1915244N15281 1915 30 NA CS NOT_NAMED 1915-09-01 06:00:00 TS 18.0000 -80.8000 45 hurdat_atl main 254 253 O_____________ hurdat_atl AL041915 18.0000 -80.8000 TS 45 0 11 344
1915244N15281 1915 30 NA CS NOT_NAMED 1915-09-01 09:00:00 TS 18.5525 -80.9226 main 267 267 P_____________ AL041915 18.5525 -80.9226 TS 47 0 10 349
1915244N15281 1915 30 NA CS NOT_NAMED 1915-09-01 12:00:00 TS 19.0000 -81.0000 50 hurdat_atl main 288 288 O_____________ hurdat_atl AL041915 19.0000 -81.0000 TS 50 0 7 349
1915244N15281 1915 30 NA CS NOT_NAMED 1915-09-01 15:00:00 TS 19.2025 -81.0576 main 302 291 P_____________ AL041915 19.2025 -81.0576 TS 52 0 3 343
1915244N15281 1915 30 NA CS NOT_NAMED 1915-09-01 18:00:00 TS 19.3000 -81.1000 55 hurdat_atl main 291 281 O_____________ hurdat_atl AL041915 19.3000 -81.1000 TS 55 0 3 339
1915244N15281 1915 30 NA CS NOT_NAMED 1915-09-01 21:00:00 TS 19.4425 -81.1500 main 278 261 P_____________ AL041915 19.4425 -81.1500 TS 57 0 3 343
1915244N15281 1915 30 NA CS NOT_NAMED 1915-09-02 00:00:00 TS 19.6000 -81.2000 60 hurdat_atl main 261 242 O_____________ hurdat_atl AL041915 19.6000 -81.2000 TS 60 0 4 345
1915244N15281 1915 30 NA CS NOT_NAMED 1915-09-02 03:00:00 TS 19.7850 -81.2425 main 242 218 P_____________ AL041915 19.7850 -81.2425 TS 62 0 4 347
1915244N15281 1915 30 NA CS NOT_NAMED 1915-09-02 06:00:00 TS 20.0000 -81.3000 65 hurdat_atl main 218 193 O_____________ hurdat_atl AL041915 20.0000 -81.3000 HU 65 1 5 346
1915244N15281 1915 30 NA CS NOT_NAMED 1915-09-02 09:00:00 TS 20.2349 -81.3627 main 193 160 P_____________ AL041915 20.2349 -81.3627 HU 70 1 5 340
1915244N15281 1915 30 NA CS NOT_NAMED 1915-09-02 12:00:00 TS 20.5000 -81.5000 75 hurdat_atl main 160 121 O_____________ hurdat_atl AL041915 20.5000 -81.5000 HU 75 1 7 326
1915244N15281 1915 30 NA CS NOT_NAMED 1915-09-02 15:00:00 TS 20.7925 -81.7625 main 115 69 P_____________ AL041915 20.7925 -81.7625 HU 80 1 8 317
1915244N15281 1915 30 NA CS NOT_NAMED 1915-09-02 18:00:00 TS 21.1000 -82.1000 85 hurdat_atl main 69 24 O_____________ hurdat_atl AL041915 21.1000 -82.1000 HU 85 2 9 313
1915244N15281 1915 30 NA CS NOT_NAMED 1915-09-02 21:00:00 TS 21.3774 -82.4353 main 24 0 P_____________ AL041915 21.3774 -82.4353 HU 85 2 9 313
1915244N15281 1915 30 NA CS NOT_NAMED 1915-09-03 00:00:00 TS 21.7000 -82.8000 85 hurdat_atl main 0 0 O_____________ hurdat_atl AL041915 21.7000 -82.8000 HU 85 2 10 314
1915244N15281 1915 30 NA CS NOT_NAMED 1915-09-03 03:00:00 TS 22.0902 -83.2224 main 23 0 P_____________ AL041915 22.0902 -83.2224 HU 82 1 12 321
1915244N15281 1915 30 NA NA NOT_NAMED 1915-09-03 06:00:00 TS 22.6000 -83.6000 80 hurdat_atl main 0 0 O_____________ hurdat_atl AL041915 22.6000 -83.6000 HU 80 1 13 334
1915244N15281 1915 30 NA GM NOT_NAMED 1915-09-03 09:00:00 TS 23.2473 -83.8305 main 45 45 P_____________ AL041915 23.2473 -83.8305 HU 80 1 15 345
1915244N15281 1915 30 NA GM NOT_NAMED 1915-09-03 12:00:00 TS 24.0000 -84.0000 80 hurdat_atl main 137 137 O_____________ hurdat_atl AL041915 24.0000 -84.0000 HU 80 1 16 348
1915244N15281 1915 30 NA GM NOT_NAMED 1915-09-03 15:00:00 TS 24.7850 -84.2002 main 227 227 P_____________ AL041915 24.7850 -84.2002 HU 80 1 16 347
1915244N15281 1915 30 NA GM NOT_NAMED 1915-09-03 18:00:00 TS 25.6000 -84.4000 80 hurdat_atl main 248 222 O_____________ hurdat_atl AL041915 25.6000 -84.4000 HU 80 1 17 347
1915244N15281 1915 30 NA GM NOT_NAMED 1915-09-03 21:00:00 TS 26.4075 -84.6002 main 222 202 P_____________ AL041915 26.4075 -84.6002 HU 80 1 16 347
1915244N15281 1915 30 NA GM NOT_NAMED 1915-09-04 00:00:00 TS 27.2000 -84.8000 80 hurdat_atl main 202 195 O_____________ hurdat_atl AL041915 27.2000 -84.8000 HU 80 1 16 347
1915244N15281 1915 30 NA GM NOT_NAMED 1915-09-04 03:00:00 TS 27.9524 -85.0132 main 189 111 P_____________ AL041915 27.9524 -85.0132 HU 80 1 15 347
1915244N15281 1915 30 NA GM NOT_NAMED 1915-09-04 06:00:00 TS 28.7000 -85.2000 80 hurdat_atl main 111 22 O_____________ hurdat_atl AL041915 28.7000 -85.2000 HU 80 1 16 349
1915244N15281 1915 30 NA GM NOT_NAMED 1915-09-04 09:00:00 TS 29.5203 -85.3542 main 22 0 P_____________ AL041915 29.5203 -85.3542 HU 80 1 16 352
1915244N15281 1915 30 NA NA NOT_NAMED 1915-09-04 11:00:00 TS 30.0000 -85.4000 80 hurdat_atl main 0 0 O_____________ hurdat_atl AL041915 30.0000 -85.4000 L HU 80 1 14 357
1915244N15281 1915 30 NA NA NOT_NAMED 1915-09-04 12:00:00 TS 30.2000 -85.4000 70 982 hurdat_atl main 0 0 O_____________ hurdat_atl AL041915 30.2000 -85.4000 HU 70 982 1 14 0
1915244N15281 1915 30 NA NA NOT_NAMED 1915-09-04 15:00:00 TS 30.9400 -85.3753 main 0 0 P_____________ AL041915 30.9400 -85.3753 HU 60 992 0 16 3
1915244N15281 1915 30 NA NA NOT_NAMED 1915-09-04 18:00:00 TS 31.8000 -85.3000 50 1003 hurdat_atl main 0 0 O_____________ hurdat_atl AL041915 31.8000 -85.3000 TS 50 1003 0 17 6
1915244N15281 1915 30 NA NA NOT_NAMED 1915-09-04 21:00:00 TS 32.6350 -85.1651 main 0 0 P_____________ AL041915 32.6350 -85.1651 TS 42 0 17 8
1915244N15281 1915 30 NA NA NOT_NAMED 1915-09-05 00:00:00 TS 33.5000 -85.0000 35 hurdat_atl main 0 0 O_____________ hurdat_atl AL041915 33.5000 -85.0000 TS 35 0 18 9
1915244N15281 1915 30 NA NA NOT_NAMED 1915-09-05 03:00:00 TS 34.4075 -84.8353 main 0 0 P_____________ AL041915 34.4075 -84.8353 TS 32 -1 18 8
1915244N15281 1915 30 NA NA NOT_NAMED 1915-09-05 06:00:00 TS 35.3000 -84.7000 30 hurdat_atl main 0 0 O_____________ hurdat_atl AL041915 35.3000 -84.7000 TD 30 -1 17 6
1915244N15281 1915 30 NA NA NOT_NAMED 1915-09-05 09:00:00 TS 36.1224 -84.6271 main 0 0 P_____________ AL041915 36.1224 -84.6271 TD 30 -1 16 3
1915244N15281 1915 30 NA NA NOT_NAMED 1915-09-05 12:00:00 TS 36.9000 -84.6000 30 hurdat_atl main 0 0 O_____________ hurdat_atl AL041915 36.9000 -84.6000 TD 30 -1 15 0
1915244N15281 1915 30 NA NA NOT_NAMED 1915-09-05 15:00:00 TS 37.6650 -84.5923 main 0 0 P_____________ AL041915 37.6650 -84.5923 TD 27 -1 15 0
1915244N15281 1915 30 NA NA NOT_NAMED 1915-09-05 18:00:00 TS 38.4000 -84.6000 25 hurdat_atl main 0 0 O_____________ hurdat_atl AL041915 38.4000 -84.6000 TD 25 -1 15 0
1915244N15281 1915 30 NA NA NOT_NAMED 1915-09-05 21:00:00 TS 39.1150 -84.5927 main 0 0 P_____________ AL041915 39.1150 -84.5927 TD 25 -1 14 0
1915244N15281 1915 30 NA NA NOT_NAMED 1915-09-06 00:00:00 TS 39.8000 -84.6000 25 hurdat_atl main 0 0 O_____________ hurdat_atl AL041915 39.8000 -84.6000 TD 25 -1 13 359
1915244N15281 1915 30 NA NA NOT_NAMED 1915-09-06 03:00:00 TS 40.4575 -84.6351 main 0 0 P_____________ AL041915 40.4575 -84.6351 TD 25 -1 13 356
1915244N15281 1915 30 NA NA NOT_NAMED 1915-09-06 06:00:00 TS 41.1000 -84.7000 25 hurdat_atl main 0 0 O_____________ hurdat_atl AL041915 41.1000 -84.7000 TD 25 -1 13 355
1915244N15281 1915 30 NA NA NOT_NAMED 1915-09-06 09:00:00 TS 41.7650 -84.7851 main 0 0 P_____________ AL041915 41.7650 -84.7851 TD 25 -1 13 353
1915244N15281 1915 30 NA NA NOT_NAMED 1915-09-06 12:00:00 TS 42.4000 -84.9000 25 hurdat_atl main 0 0 O_____________ hurdat_atl AL041915 42.4000 -84.9000 TD 25 -1 12 351
1915244N15281 1915 30 NA NA NOT_NAMED 1915-09-06 15:00:00 TS 42.9701 -85.0420 main 0 0 P_____________ AL041915 42.9701 -85.0420 TD 22 -1 11 349
1915244N15281 1915 30 NA NA NOT_NAMED 1915-09-06 18:00:00 TS 43.5000 -85.2000 20 hurdat_atl main 0 O_____________ hurdat_atl AL041915 43.5000 -85.2000 TD 20 -1 11 348

About IBTrACS Database

This database is a web-friendly format of International Best Track Archive for Climate Stewardship (IBTrACS), a global best track data archive curated by NOAA dating back to 1842.

Updated: 2021-12-08